createdAt,value
2024-04-19T00:00:14.690Z,81.70
2024-04-19T00:03:08.263Z,81.50
2024-04-19T00:05:42.683Z,81.90
2024-04-19T00:08:34.874Z,81.10
2024-04-19T00:11:07.355Z,81.50
2024-04-19T00:13:39.733Z,81.90
2024-04-19T00:16:11.802Z,81.20
2024-04-19T00:18:44.423Z,81.60
2024-04-19T00:21:17.194Z,81.90
2024-04-19T00:23:49.325Z,81.10
2024-04-19T00:26:23.206Z,81.20
2024-04-19T00:28:55.519Z,81.40
2024-04-19T00:31:27.313Z,81.40
2024-04-19T00:34:00.025Z,81.30
2024-04-19T00:36:32.313Z,81.60
2024-04-19T00:39:05.062Z,81.40
2024-04-19T00:41:36.984Z,81.40
2024-04-19T00:44:09.543Z,81.50
2024-04-19T00:46:41.461Z,81.80
2024-04-19T00:49:34.147Z,81.90
2024-04-19T00:52:09.405Z,81.70
2024-04-19T00:54:43.134Z,82.60
2024-04-19T00:57:15.222Z,81.70
2024-04-19T00:59:48.786Z,81.90
2024-04-19T01:02:21.355Z,82.20
2024-04-19T01:04:53.533Z,81.60
2024-04-19T01:07:25.456Z,81.40
2024-04-19T01:09:57.680Z,81.50
2024-04-19T01:12:30.035Z,81.90
2024-04-19T01:15:02.769Z,81.80
2024-04-19T01:17:35.739Z,81.90
2024-04-19T01:20:09.367Z,81.50
2024-04-19T01:22:44.076Z,81.90
2024-04-19T01:25:22.517Z,82.30
2024-04-19T01:27:54.434Z,82.60
2024-04-19T01:30:26.338Z,82.70
2024-04-19T01:32:59.063Z,82.20
2024-04-19T01:35:30.975Z,82.30
2024-04-19T01:38:03.044Z,82.50
2024-04-19T01:40:34.846Z,82.60
2024-04-19T01:43:07.789Z,82.60
2024-04-19T01:45:39.642Z,82.70
2024-04-19T01:48:11.873Z,82.60
2024-04-19T01:50:44.546Z,82.00
2024-04-19T01:53:16.968Z,82.20
2024-04-19T01:55:48.983Z,81.90
2024-04-19T01:58:40.830Z,82.30
2024-04-19T02:01:12.585Z,82.60
2024-04-19T02:03:44.932Z,82.50
2024-04-19T02:06:17.782Z,82.60
2024-04-19T02:08:49.577Z,82.90
2024-04-19T02:11:21.532Z,83.10
2024-04-19T02:13:53.319Z,82.80
2024-04-19T02:16:25.329Z,83.00
2024-04-19T02:18:58.349Z,83.50
2024-04-19T02:21:30.256Z,83.80
2024-04-19T02:24:06.020Z,84.30
2024-04-19T02:26:38.649Z,85.20
2024-04-19T02:29:29.456Z,84.00
2024-04-19T02:32:01.420Z,84.80
2024-04-19T02:34:33.204Z,84.60
2024-04-19T02:37:05.467Z,84.80
2024-04-19T02:39:37.410Z,84.20
2024-04-19T02:42:09.572Z,84.70
2024-04-19T02:44:56.641Z,83.80
2024-04-19T02:47:28.734Z,84.00
2024-04-19T02:50:01.144Z,84.10
2024-04-19T02:52:33.158Z,83.90
2024-04-19T02:55:06.412Z,84.10
2024-04-19T02:57:38.500Z,83.70
2024-04-19T03:00:13.032Z,84.00
2024-04-19T03:02:51.019Z,84.40
2024-04-19T03:05:26.040Z,85.10
2024-04-19T03:07:58.020Z,85.30
2024-04-19T03:10:29.840Z,85.20
2024-04-19T03:13:02.165Z,85.60
2024-04-19T03:15:34.636Z,84.50
2024-04-19T03:18:08.547Z,84.20
2024-04-19T03:20:40.481Z,84.70
2024-04-19T03:23:12.475Z,85.00
2024-04-19T03:25:44.320Z,84.70
2024-04-19T03:28:17.356Z,84.60
2024-04-19T03:30:50.090Z,85.10
2024-04-19T03:33:21.992Z,85.30
2024-04-19T03:35:54.856Z,84.90
2024-04-19T03:38:29.426Z,84.60
2024-04-19T03:41:02.100Z,85.00
2024-04-19T03:43:41.356Z,85.20
2024-04-19T03:46:13.994Z,84.80
2024-04-19T03:48:45.870Z,85.00
2024-04-19T03:51:17.886Z,85.20
2024-04-19T03:53:49.675Z,85.00
2024-04-19T03:56:22.080Z,84.80
2024-04-19T03:58:54.123Z,84.50
2024-04-19T04:01:25.997Z,84.80
2024-04-19T04:03:59.012Z,84.90
2024-04-19T04:06:32.331Z,84.80
2024-04-19T04:09:05.581Z,84.90
2024-04-19T04:11:38.154Z,84.70
2024-04-19T04:14:10.661Z,84.40
2024-04-19T04:16:43.000Z,84.00
2024-04-19T04:19:17.282Z,84.40
2024-04-19T04:21:49.965Z,84.20
2024-04-19T04:24:22.333Z,84.20
2024-04-19T04:26:54.187Z,83.10
2024-04-19T04:29:28.652Z,84.10
2024-04-19T04:32:00.803Z,82.60
2024-04-19T04:34:33.358Z,83.70
2024-04-19T04:37:05.365Z,84.50
2024-04-19T04:39:37.760Z,85.70
2024-04-19T04:42:10.154Z,86.30
2024-04-19T04:44:42.617Z,86.80
2024-04-19T04:47:15.156Z,87.70
2024-04-19T04:49:47.268Z,87.70
2024-04-19T04:52:19.006Z,87.30
2024-04-19T04:54:50.880Z,87.40
2024-04-19T04:57:22.661Z,87.80
2024-04-19T04:59:54.702Z,87.30
2024-04-19T05:02:27.161Z,87.80
2024-04-19T05:05:01.307Z,87.30
2024-04-19T05:07:34.822Z,87.40
2024-04-19T05:10:09.664Z,87.20
2024-04-19T05:12:41.822Z,87.50
2024-04-19T05:15:14.880Z,87.30
2024-04-19T05:17:46.925Z,87.50
2024-04-19T05:20:19.186Z,86.70
2024-04-19T05:22:51.795Z,86.40
2024-04-19T05:25:23.866Z,86.30
2024-04-19T05:27:55.806Z,84.70
2024-04-19T05:30:29.194Z,83.60
2024-04-19T05:33:06.723Z,83.30
2024-04-19T05:35:38.542Z,83.40
2024-04-19T05:38:10.267Z,84.60
2024-04-19T05:40:42.510Z,83.10
2024-04-19T05:43:14.297Z,83.30
2024-04-19T05:45:46.689Z,83.30
2024-04-19T05:48:22.244Z,82.60
2024-04-19T05:50:55.082Z,81.20
2024-04-19T05:53:26.862Z,78.70
2024-04-19T05:55:58.835Z,77.40
2024-04-19T05:58:30.512Z,77.10
2024-04-19T06:01:06.223Z,77.20
2024-04-19T06:03:38.875Z,77.10
2024-04-19T06:06:12.498Z,78.80
2024-04-19T06:08:44.964Z,78.90
2024-04-19T06:11:17.619Z,74.50
2024-04-19T06:13:49.770Z,75.00
2024-04-19T06:16:21.557Z,75.30
2024-04-19T06:18:53.845Z,74.90
2024-04-19T06:21:26.087Z,75.50
2024-04-19T06:23:58.418Z,74.90
2024-04-19T06:26:30.772Z,74.90
2024-04-19T06:29:03.501Z,73.30
2024-04-19T06:31:36.032Z,73.50
2024-04-19T06:34:07.885Z,74.10
2024-04-19T06:36:40.372Z,74.70
2024-04-19T06:39:23.459Z,75.90
2024-04-19T06:41:55.521Z,74.50
2024-04-19T06:44:27.502Z,72.40
2024-04-19T06:46:59.719Z,74.70
2024-04-19T06:49:32.251Z,74.00
2024-04-19T06:52:04.833Z,72.90
2024-04-19T06:54:36.658Z,73.60
2024-04-19T06:57:09.918Z,73.10
2024-04-19T06:59:44.600Z,73.80
2024-04-19T07:02:17.594Z,72.00
2024-04-19T07:04:49.768Z,72.50
2024-04-19T07:07:22.307Z,71.10
2024-04-19T07:09:55.618Z,71.10
2024-04-19T07:12:28.157Z,71.60
2024-04-19T07:15:01.350Z,71.10
2024-04-19T07:17:34.996Z,71.80
2024-04-19T07:20:06.224Z,71.40
2024-04-19T07:22:38.917Z,71.50
2024-04-19T07:25:11.995Z,72.60
2024-04-19T07:27:46.787Z,71.70
2024-04-19T07:30:19.238Z,72.10
2024-04-19T07:32:52.567Z,71.20
2024-04-19T07:35:25.315Z,71.70
2024-04-19T07:37:57.108Z,71.40
2024-04-19T07:40:29.276Z,71.10
2024-04-19T07:43:01.099Z,70.50
2024-04-19T07:45:33.524Z,70.30
2024-04-19T07:48:05.803Z,70.10
2024-04-19T07:50:37.655Z,70.00
2024-04-19T07:53:10.391Z,69.70
2024-04-19T07:55:43.111Z,68.80
2024-04-19T07:58:15.756Z,68.20
2024-04-19T08:00:49.050Z,67.70
2024-04-19T08:03:20.969Z,68.30
2024-04-19T08:05:52.965Z,68.40
2024-04-19T08:08:26.429Z,68.90
2024-04-19T08:10:56.826Z,68.10
2024-04-19T08:13:29.275Z,66.30
2024-04-19T08:16:01.431Z,68.30
2024-04-19T08:18:33.363Z,67.20
2024-04-19T08:21:06.014Z,67.40
2024-04-19T08:23:37.894Z,66.50
2024-04-19T08:26:09.785Z,65.00
2024-04-19T08:28:41.592Z,66.70
2024-04-19T08:31:14.165Z,66.80
2024-04-19T08:33:46.127Z,66.30
2024-04-19T08:36:18.160Z,66.40
2024-04-19T08:38:50.041Z,66.50
2024-04-19T08:41:25.668Z,66.20
2024-04-19T08:43:58.844Z,65.70
2024-04-19T08:46:33.779Z,66.00
2024-04-19T08:49:09.428Z,65.90
2024-04-19T08:51:55.983Z,65.90
2024-04-19T08:54:35.660Z,66.20
2024-04-19T08:57:09.815Z,64.90
2024-04-19T08:59:42.370Z,65.20
2024-04-19T09:02:14.191Z,65.40
2024-04-19T09:04:46.023Z,65.50
2024-04-19T09:07:18.557Z,64.80
2024-04-19T09:09:53.515Z,64.20
2024-04-19T09:12:25.492Z,63.90
2024-04-19T09:14:57.224Z,62.70
2024-04-19T09:17:32.546Z,63.00
2024-04-19T09:20:04.493Z,62.60
2024-04-19T09:22:36.279Z,61.60
2024-04-19T09:25:08.637Z,61.30
2024-04-19T09:27:41.557Z,60.40
2024-04-19T09:30:15.167Z,60.40
2024-04-19T09:32:49.315Z,60.30
2024-04-19T09:35:26.472Z,60.40
2024-04-19T09:38:00.444Z,61.30
2024-04-19T09:40:37.355Z,60.50
2024-04-19T09:43:11.871Z,60.10
2024-04-19T09:45:47.010Z,60.70
2024-04-19T09:48:20.910Z,61.10
2024-04-19T09:50:55.398Z,60.10
2024-04-19T09:53:32.313Z,60.80
2024-04-19T09:56:16.713Z,60.50
2024-04-19T09:58:49.500Z,60.40
2024-04-19T10:01:24.049Z,60.50
2024-04-19T10:03:58.665Z,60.60
2024-04-19T10:06:37.850Z,58.60
2024-04-19T10:09:14.628Z,59.60
2024-04-19T10:11:48.852Z,59.80
2024-04-19T10:14:22.793Z,60.70
2024-04-19T10:16:58.537Z,60.90
2024-04-19T10:19:42.544Z,59.70
2024-04-19T10:22:25.447Z,60.10
2024-04-19T10:25:02.799Z,60.10
2024-04-19T10:27:36.375Z,59.50
2024-04-19T10:30:16.278Z,59.40
2024-04-19T10:32:55.257Z,59.60
2024-04-19T10:35:27.699Z,58.80
2024-04-19T10:38:02.538Z,58.90
2024-04-19T10:40:35.104Z,58.80
2024-04-19T10:43:09.148Z,58.30
2024-04-19T10:45:42.155Z,57.70
2024-04-19T10:48:15.727Z,57.10
2024-04-19T10:50:48.117Z,56.90
2024-04-19T10:53:22.597Z,57.00
2024-04-19T10:55:54.895Z,57.30
2024-04-19T10:58:27.142Z,57.40
2024-04-19T11:01:01.400Z,57.90
2024-04-19T11:03:34.109Z,56.90
2024-04-19T11:06:11.476Z,57.10
2024-04-19T11:08:44.433Z,57.20
2024-04-19T11:11:17.274Z,57.80
2024-04-19T11:13:50.205Z,58.10
2024-04-19T11:16:22.936Z,57.90
2024-04-19T11:18:55.281Z,57.60
2024-04-19T11:21:27.719Z,57.80
2024-04-19T11:24:00.837Z,57.70
2024-04-19T11:26:33.593Z,57.60
2024-04-19T11:29:08.961Z,58.30
2024-04-19T11:31:43.981Z,59.10
2024-04-19T11:34:16.649Z,59.90
2024-04-19T11:36:49.095Z,59.70
2024-04-19T11:39:23.688Z,59.40
2024-04-19T11:41:56.842Z,58.90
2024-04-19T11:44:30.270Z,57.90
2024-04-19T11:47:06.658Z,57.30
2024-04-19T11:49:39.338Z,58.00
2024-04-19T11:52:12.646Z,58.30
2024-04-19T11:54:45.917Z,58.10
2024-04-19T11:57:18.292Z,58.00
2024-04-19T11:59:50.791Z,58.00
2024-04-19T12:02:23.206Z,58.20
2024-04-19T12:04:56.045Z,57.40
2024-04-19T12:07:27.251Z,57.50
2024-04-19T12:10:00.655Z,55.20
2024-04-19T12:13:09.886Z,57.20
2024-04-19T12:16:05.072Z,55.90
2024-04-19T12:18:18.353Z,56.50
2024-04-19T12:20:52.700Z,55.10
2024-04-19T12:23:27.560Z,56.80
2024-04-19T12:26:01.642Z,56.50
2024-04-19T12:28:35.229Z,56.00
2024-04-19T12:31:07.922Z,55.30
2024-04-19T12:33:40.418Z,54.70
2024-04-19T12:36:13.369Z,55.40
2024-04-19T12:38:45.931Z,54.80
2024-04-19T12:41:18.338Z,54.40
2024-04-19T12:43:50.748Z,55.00
2024-04-19T12:46:23.177Z,55.30
2024-04-19T12:49:03.563Z,54.90
2024-04-19T12:51:36.796Z,55.30
2024-04-19T12:54:07.901Z,55.30
2024-04-19T12:56:40.333Z,54.00
2024-04-19T12:59:13.289Z,55.10
2024-04-19T13:01:46.224Z,54.30
2024-04-19T13:04:18.717Z,55.20
2024-04-19T13:06:51.286Z,54.90
2024-04-19T13:09:23.608Z,55.20
2024-04-19T13:11:56.775Z,54.90
2024-04-19T13:14:29.139Z,54.10
2024-04-19T13:17:02.644Z,54.20
2024-04-19T13:19:35.972Z,53.70
2024-04-19T13:22:08.629Z,53.30
2024-04-19T13:24:41.065Z,53.40
2024-04-19T13:27:14.990Z,53.60
2024-04-19T13:29:47.294Z,53.60
2024-04-19T13:32:19.668Z,52.30
2024-04-19T13:34:52.038Z,53.30
2024-04-19T13:37:25.235Z,52.70
2024-04-19T13:39:57.636Z,52.70
2024-04-19T13:42:29.995Z,53.10
2024-04-19T13:45:02.467Z,53.20
2024-04-19T13:47:35.039Z,52.50
2024-04-19T13:50:09.659Z,52.70
2024-04-19T13:52:42.067Z,52.50
2024-04-19T13:55:14.598Z,52.00
2024-04-19T13:57:47.379Z,51.60
2024-04-19T14:00:20.630Z,52.00
2024-04-19T14:02:53.010Z,52.30
2024-04-19T14:05:25.701Z,51.70
2024-04-19T14:07:59.206Z,51.50
2024-04-19T14:10:32.022Z,50.90
2024-04-19T14:13:06.103Z,51.20
2024-04-19T14:15:39.415Z,51.20
2024-04-19T14:18:12.377Z,51.40
2024-04-19T14:20:47.030Z,51.40
2024-04-19T14:23:19.492Z,51.60
2024-04-19T14:25:51.897Z,51.40
2024-04-19T14:28:24.351Z,50.90
2024-04-19T14:30:56.536Z,51.10
2024-04-19T14:33:28.966Z,51.50
2024-04-19T14:36:03.680Z,51.70
2024-04-19T14:38:36.293Z,52.50
2024-04-19T14:41:09.840Z,53.00
2024-04-19T14:43:42.506Z,52.70
2024-04-19T14:46:15.389Z,52.80
2024-04-19T14:48:48.869Z,52.90
2024-04-19T14:51:21.905Z,51.80
2024-04-19T14:53:54.832Z,51.30
2024-04-19T14:56:27.165Z,51.40
2024-04-19T14:59:07.019Z,52.10
2024-04-19T15:01:46.660Z,52.40
2024-04-19T15:04:19.201Z,52.60
2024-04-19T15:06:52.059Z,52.30
2024-04-19T15:09:24.638Z,52.60
2024-04-19T15:11:57.011Z,52.60
2024-04-19T15:14:29.412Z,52.60
2024-04-19T15:17:03.051Z,52.40
2024-04-19T15:19:36.668Z,52.50
2024-04-19T15:22:09.225Z,52.60
2024-04-19T15:24:42.762Z,52.60
2024-04-19T15:27:15.144Z,52.80
2024-04-19T15:29:47.457Z,52.50
2024-04-19T15:32:19.671Z,52.50
2024-04-19T15:34:52.138Z,52.80
2024-04-19T15:37:24.645Z,52.70
2024-04-19T15:39:57.085Z,52.50
2024-04-19T15:42:29.618Z,52.60
2024-04-19T15:45:02.285Z,52.80
2024-04-19T15:47:35.652Z,52.90
2024-04-19T15:50:08.702Z,53.00
2024-04-19T15:52:40.960Z,53.20
2024-04-19T15:55:13.348Z,52.70
2024-04-19T15:57:45.815Z,52.70
2024-04-19T16:00:19.110Z,52.60
2024-04-19T16:02:53.891Z,52.70
2024-04-19T16:05:28.022Z,52.80
2024-04-19T16:08:00.584Z,52.40
2024-04-19T16:10:33.147Z,52.00
2024-04-19T16:13:05.672Z,52.20
2024-04-19T16:15:41.371Z,52.30
2024-04-19T16:18:14.629Z,52.00
2024-04-19T16:20:53.542Z,52.10
2024-04-19T16:23:25.975Z,52.40
2024-04-19T16:25:59.050Z,52.40
2024-04-19T16:28:32.757Z,52.70
2024-04-19T16:31:05.360Z,51.90
2024-04-19T16:33:38.589Z,52.70
2024-04-19T16:36:09.652Z,52.80
2024-04-19T16:38:42.163Z,51.90
2024-04-19T16:41:14.553Z,52.10
2024-04-19T16:43:46.836Z,52.30
2024-04-19T16:46:20.246Z,52.60
2024-04-19T16:48:53.092Z,53.60
2024-04-19T16:51:25.738Z,53.00
2024-04-19T16:53:58.097Z,53.50
2024-04-19T16:56:33.002Z,52.70
2024-04-19T16:59:05.511Z,52.50
2024-04-19T17:01:38.330Z,52.70
2024-04-19T17:04:10.988Z,52.80
2024-04-19T17:06:45.829Z,53.00
2024-04-19T17:09:20.513Z,53.10
2024-04-19T17:11:55.569Z,53.50
2024-04-19T17:14:28.312Z,53.60
2024-04-19T17:17:01.131Z,53.70
2024-04-19T17:19:35.136Z,53.70
2024-04-19T17:22:07.608Z,54.10
2024-04-19T17:24:40.624Z,54.30
2024-04-19T17:27:16.326Z,54.40
2024-04-19T17:29:48.755Z,55.10
2024-04-19T17:32:21.180Z,54.30
2024-04-19T17:34:53.710Z,54.50
2024-04-19T17:37:27.760Z,54.70
2024-04-19T17:40:02.200Z,54.60
2024-04-19T17:42:33.305Z,55.00
2024-04-19T17:45:06.967Z,54.80
2024-04-19T17:47:37.923Z,54.80
2024-04-19T17:50:11.005Z,54.80
2024-04-19T17:52:43.415Z,55.00
2024-04-19T17:55:16.233Z,55.40
2024-04-19T17:57:52.479Z,56.10
2024-04-19T18:00:27.198Z,56.70
2024-04-19T18:02:59.742Z,57.10
2024-04-19T18:05:33.985Z,57.20
2024-04-19T18:08:07.235Z,57.90
2024-04-19T18:10:40.353Z,58.90
2024-04-19T18:13:12.795Z,60.50
2024-04-19T18:15:46.974Z,61.90
2024-04-19T18:18:21.910Z,63.20
2024-04-19T18:20:54.943Z,65.30
2024-04-19T18:23:32.499Z,66.80
2024-04-19T18:26:07.768Z,67.90
2024-04-19T18:28:40.265Z,68.40
2024-04-19T18:31:13.092Z,68.80
2024-04-19T18:33:48.480Z,69.50
2024-04-19T18:36:20.898Z,69.40
2024-04-19T18:38:53.251Z,69.80
2024-04-19T18:41:26.831Z,70.20
2024-04-19T18:43:59.317Z,70.00
2024-04-19T18:46:32.140Z,69.60
2024-04-19T18:49:09.549Z,70.00
2024-04-19T18:51:41.904Z,69.80
2024-04-19T18:54:15.278Z,70.10
2024-04-19T18:56:47.578Z,69.90
2024-04-19T18:59:20.117Z,69.70
2024-04-19T19:01:54.003Z,69.80
2024-04-19T19:04:27.881Z,70.40
2024-04-19T19:07:00.282Z,70.90
2024-04-19T19:09:35.017Z,71.10
2024-04-19T19:12:08.358Z,71.40
2024-04-19T19:14:45.685Z,71.30
2024-04-19T19:17:18.791Z,70.90
2024-04-19T19:19:54.992Z,71.30
2024-04-19T19:22:27.295Z,71.30
2024-04-19T19:25:02.154Z,71.40
2024-04-19T19:27:34.596Z,72.20
2024-04-19T19:30:07.934Z,72.30
2024-04-19T19:32:40.976Z,72.50
2024-04-19T19:35:14.545Z,72.30
2024-04-19T19:37:46.815Z,72.70
2024-04-19T19:40:19.366Z,72.70
2024-04-19T19:42:53.470Z,72.80
2024-04-19T19:45:26.207Z,72.50
2024-04-19T19:47:58.902Z,72.50
2024-04-19T19:50:32.665Z,73.00
2024-04-19T19:53:05.849Z,73.20
2024-04-19T19:55:38.383Z,73.40
2024-04-19T19:58:10.918Z,72.90
2024-04-19T20:01:01.133Z,72.90
2024-04-19T20:03:51.260Z,73.30
2024-04-19T20:06:26.739Z,73.80
2024-04-19T20:09:00.092Z,73.80
2024-04-19T20:11:32.698Z,73.60
2024-04-19T20:14:05.017Z,73.60
2024-04-19T20:16:37.361Z,73.60
2024-04-19T20:19:10.999Z,73.70
2024-04-19T20:21:43.437Z,74.20
2024-04-19T20:24:15.696Z,74.00
2024-04-19T20:26:48.067Z,74.20
2024-04-19T20:29:20.620Z,74.20
2024-04-19T20:31:53.057Z,73.70
2024-04-19T20:34:29.372Z,74.10
2024-04-19T20:37:01.855Z,74.30
2024-04-19T20:39:34.161Z,74.40
2024-04-19T20:42:07.437Z,74.20
2024-04-19T20:44:40.475Z,74.90
2024-04-19T20:47:14.487Z,75.00
2024-04-19T20:49:47.143Z,75.10
2024-04-19T20:52:19.758Z,75.20
2024-04-19T20:54:52.042Z,74.90
2024-04-19T20:57:26.752Z,75.30
2024-04-19T20:59:59.167Z,75.40
2024-04-19T21:02:33.043Z,75.60
2024-04-19T21:05:07.082Z,75.80
2024-04-19T21:07:39.574Z,76.00
2024-04-19T21:10:16.803Z,75.90
2024-04-19T21:12:50.438Z,75.70
2024-04-19T21:15:23.295Z,76.20
2024-04-19T21:17:55.827Z,76.20
2024-04-19T21:20:28.577Z,76.10
2024-04-19T21:23:00.902Z,76.00
2024-04-19T21:25:34.068Z,76.40
2024-04-19T21:28:07.235Z,76.30
2024-04-19T21:30:39.621Z,76.50
2024-04-19T21:33:12.144Z,76.50
2024-04-19T21:35:44.492Z,76.30
2024-04-19T21:38:16.912Z,76.50
2024-04-19T21:40:49.232Z,77.10
2024-04-19T21:43:21.863Z,77.00
2024-04-19T21:45:54.431Z,77.00
2024-04-19T21:48:26.911Z,77.00
2024-04-19T21:50:59.264Z,77.30
2024-04-19T21:53:31.564Z,77.30
2024-04-19T21:56:04.720Z,77.50
2024-04-19T21:58:37.305Z,77.70
2024-04-19T22:01:09.785Z,78.50
2024-04-19T22:03:43.667Z,78.00
2024-04-19T22:06:16.199Z,78.00
2024-04-19T22:08:49.322Z,78.10
2024-04-19T22:11:22.938Z,77.90
2024-04-19T22:13:55.342Z,78.00
2024-04-19T22:16:28.055Z,78.10
2024-04-19T22:19:01.256Z,78.00
2024-04-19T22:21:34.459Z,78.20
2024-04-19T22:24:07.928Z,78.50
2024-04-19T22:26:39.307Z,78.50
2024-04-19T22:29:11.738Z,78.90
2024-04-19T22:31:44.363Z,78.80
2024-04-19T22:34:18.600Z,79.60
2024-04-19T22:36:50.944Z,78.80
2024-04-19T22:39:23.316Z,79.00
2024-04-19T22:41:57.693Z,78.90
2024-04-19T22:44:30.182Z,78.80
2024-04-19T22:47:02.493Z,78.80
2024-04-19T22:49:35.688Z,78.50
2024-04-19T22:52:08.857Z,79.50
2024-04-19T22:54:41.220Z,79.10
2024-04-19T22:57:14.294Z,79.20
2024-04-19T22:59:47.010Z,79.50
2024-04-19T23:02:19.643Z,79.90
2024-04-19T23:04:51.995Z,80.10
2024-04-19T23:07:24.555Z,80.30
2024-04-19T23:09:58.156Z,80.50
2024-04-19T23:12:30.568Z,80.40
2024-04-19T23:15:04.337Z,80.50
2024-04-19T23:17:38.893Z,80.80
2024-04-19T23:20:11.850Z,80.90
2024-04-19T23:22:46.821Z,81.10
2024-04-19T23:25:19.247Z,81.50
2024-04-19T23:27:51.638Z,81.30
2024-04-19T23:30:24.282Z,82.00
2024-04-19T23:32:56.689Z,81.80
2024-04-19T23:35:29.422Z,81.90
2024-04-19T23:38:01.746Z,82.10
2024-04-19T23:40:34.384Z,81.90
2024-04-19T23:43:07.374Z,82.20
2024-04-19T23:45:41.647Z,82.80
2024-04-19T23:48:14.158Z,82.00
2024-04-19T23:50:46.459Z,82.00
2024-04-19T23:53:19.677Z,82.20
2024-04-19T23:55:52.218Z,82.10
2024-04-19T23:58:24.678Z,82.20
